Time;durP1;ratioP1;P1;durP2;ratioP2;P2;SDS_P1;SDS_P2;PMS_P1;PMS_P2;Temp;Humidity;BMP_temperature;BMP_pressure;BME280_temperature;BME280_humidity;BME280_pressure;Samples;Min_cycle;Max_cycle;Signal;HPM_P1;HPM_P2
2021/09/05 00:02:13;;;;;;;78.35;43.47;;;;;;;14.16;100.00;100393.56;4995788;28;20065;-69
2021/09/05 00:04:40;;;;;;;77.47;43.05;;;;;;;14.01;100.00;100372.25;4996103;28;20058;-69
2021/09/05 00:07:08;;;;;;;79.82;42.55;;;;;;;14.13;100.00;100395.47;4996699;28;20077;-69
2021/09/05 00:09:35;;;;;;;82.15;43.72;;;;;;;14.05;100.00;100386.28;4996598;28;20436;-69
2021/09/05 00:12:04;;;;;;;75.28;40.70;;;;;;;14.09;100.00;100393.13;4995075;28;20042;-68
2021/09/05 00:14:31;;;;;;;78.97;43.05;;;;;;;14.10;100.00;100401.09;5001224;28;20056;-69
2021/09/05 00:16:58;;;;;;;77.50;40.50;;;;;;;14.07;100.00;100395.09;4995619;28;20101;-69
2021/09/05 00:19:25;;;;;;;73.43;41.50;;;;;;;14.07;100.00;100389.72;5006710;28;20052;-68
2021/09/05 00:21:52;;;;;;;71.57;40.63;;;;;;;14.06;100.00;100393.38;5013621;28;20140;-69
2021/09/05 00:24:19;;;;;;;74.93;40.72;;;;;;;14.05;100.00;100388.97;5013861;28;20076;-68
2021/09/05 00:26:47;;;;;;;75.53;41.90;;;;;;;14.02;100.00;100386.50;5013705;28;20343;-68
2021/09/05 00:29:15;;;;;;;72.82;40.38;;;;;;;14.04;100.00;100389.91;4997721;28;20460;-68
2021/09/05 00:31:42;;;;;;;72.15;39.42;;;;;;;14.00;100.00;100389.28;5013886;28;20107;-68
2021/09/05 00:34:09;;;;;;;65.63;38.03;;;;;;;13.97;100.00;100384.16;5014929;28;20046;-68
2021/09/05 00:36:37;;;;;;;70.30;39.42;;;;;;;13.99;100.00;100393.81;4997497;28;20132;-68
2021/09/05 00:39:05;;;;;;;71.78;38.60;;;;;;;14.00;100.00;100389.28;5013692;28;20049;-69
2021/09/05 00:41:33;;;;;;;65.63;37.25;;;;;;;14.00;100.00;100386.59;5013912;28;20053;-69
2021/09/05 00:44:03;;;;;;;67.25;38.15;;;;;;;13.98;100.00;100385.88;5014786;28;20046;-68
2021/09/05 00:46:32;;;;;;;62.72;35.95;;;;;;;13.99;100.00;100387.56;5013884;28;20054;-68
2021/09/05 00:48:59;;;;;;;62.40;36.78;;;;;;;14.01;100.00;100382.09;5014860;28;20053;-68
2021/09/05 00:51:32;;;;;;;67.85;38.15;;;;;;;13.96;100.00;100377.91;5013140;28;20119;-68
2021/09/05 00:54:03;;;;;;;60.97;36.35;;;;;;;13.96;100.00;100379.75;5013270;28;20046;-68
2021/09/05 00:56:33;;;;;;;65.90;36.67;;;;;;;13.97;100.00;100382.34;5013719;28;20054;-68
2021/09/05 00:59:05;;;;;;;60.90;35.58;;;;;;;13.99;100.00;100375.03;5013717;28;20143;-68
2021/09/05 01:01:33;;;;;;;63.00;36.05;;;;;;;13.97;100.00;100368.91;5013385;28;20451;-69
2021/09/05 01:04:04;;;;;;;66.35;35.80;;;;;;;14.03;100.00;100375.66;5014893;28;20347;-69
2021/09/05 01:06:33;;;;;;;65.72;34.60;;;;;;;14.01;100.00;100372.25;5013476;28;20058;-69
2021/09/05 01:09:01;;;;;;;62.47;35.45;;;;;;;14.01;100.00;100376.72;5014579;28;20338;-68
2021/09/05 01:11:31;;;;;;;61.28;35.33;;;;;;;13.94;100.00;100376.34;5014895;28;20474;-69
2021/09/05 01:14:01;;;;;;;64.65;36.65;;;;;;;13.98;100.00;100369.75;5014639;28;20773;-68
2021/09/05 01:16:32;;;;;;;62.97;35.10;;;;;;;14.04;100.00;100379.19;5013443;28;20057;-69
2021/09/05 01:19:20;;;;;;;59.95;35.55;;;;;;;14.04;100.00;100381.88;5003586;28;20414;-68
2021/09/05 01:22:08;;;;;;;62.85;34.55;;;;;;;14.08;100.00;100389.63;4993329;28;20085;-68
2021/09/05 01:24:53;;;;;;;63.75;35.30;;;;;;;13.99;100.00;100383.06;5017241;28;20124;-68
2021/09/05 01:27:39;;;;;;;62.78;34.83;;;;;;;13.98;100.00;100380.50;4998932;28;20057;-68
2021/09/05 01:30:21;;;;;;;61.17;35.88;;;;;;;14.00;100.00;100383.91;4997284;28;20042;-68
2021/09/05 01:33:06;;;;;;;59.05;34.47;;;;;;;13.99;100.00;100379.53;4998440;28;20117;-68
2021/09/05 01:36:08;;;;;;;63.38;34.60;;;;;;;13.95;100.00;100381.56;4976810;28;20054;-69
2021/09/05 01:38:55;;;;;;;64.38;35.20;;;;;;;13.98;100.00;100392.09;5004643;28;20054;-69
2021/09/05 01:41:45;;;;;;;64.90;35.72;;;;;;;13.93;100.00;100388.88;4997225;28;20105;-69
2021/09/05 01:44:15;;;;;;;67.82;36.78;;;;;;;13.92;100.00;100391.66;4997459;28;20100;-68
2021/09/05 01:47:00;;;;;;;62.47;35.17;;;;;;;13.88;100.00;100390.19;4998285;28;20177;-68
2021/09/05 01:49:33;;;;;;;69.38;37.55;;;;;;;13.82;100.00;100388.78;4998433;28;20230;-69
2021/09/05 01:52:22;;;;;;;66.28;37.22;;;;;;;13.82;100.00;100392.34;5013382;28;20057;-68
2021/09/05 01:55:09;;;;;;;72.00;36.95;;;;;;;13.80;100.00;100396.09;4997966;28;20090;-70
2021/09/05 01:57:54;;;;;;;66.75;36.45;;;;;;;13.79;100.00;100402.44;4998560;28;20120;-70
2021/09/05 02:00:50;;;;;;;65.70;36.13;;;;;;;13.71;100.00;100401.16;4979119;28;20138;-71
2021/09/05 02:03:28;;;;;;;63.63;35.88;;;;;;;13.67;100.00;100404.16;5013450;28;20541;-70
2021/09/05 02:06:10;;;;;;;61.35;35.13;;;;;;;13.65;100.00;100401.56;5012916;28;20141;-70
2021/09/05 02:08:59;;;;;;;58.38;33.15;;;;;;;13.67;100.00;100413.03;4997833;28;20145;-70
2021/09/05 02:11:45;;;;;;;63.00;35.38;;;;;;;13.64;100.00;100407.03;4998285;28;20092;-70
2021/09/05 02:14:34;;;;;;;64.82;35.97;;;;;;;13.64;100.00;100409.72;4998672;28;20444;-70
2021/09/05 02:17:21;;;;;;;60.55;33.92;;;;;;;13.62;100.00;100411.66;4997615;28;20058;-70
2021/09/05 02:20:05;;;;;;;59.70;33.75;;;;;;;13.60;100.00;100413.56;5012901;28;20056;-70
2021/09/05 02:22:50;;;;;;;60.58;34.13;;;;;;;13.51;100.00;100417.78;4997529;28;20154;-71
2021/09/05 02:25:35;;;;;;;63.92;33.47;;;;;;;13.54;100.00;100425.59;5001239;28;20061;-70
2021/09/05 02:28:22;;;;;;;58.50;32.92;;;;;;;13.37;100.00;100398.09;5017276;28;20058;-70
2021/09/05 02:31:11;;;;;;;59.78;32.90;;;;;;;13.50;100.00;100419.59;5015800;28;20133;-69
2021/09/05 02:34:01;;;;;;;60.38;34.85;;;;;;;13.48;100.00;100420.66;5016826;28;20447;-69
2021/09/05 02:36:48;;;;;;;61.85;33.30;;;;;;;13.45;100.00;100416.31;5015767;28;20060;-70
2021/09/05 02:39:47;;;;;;;59.20;34.08;;;;;;;13.46;100.00;100411.88;5012267;28;20038;-70
2021/09/05 02:42:34;;;;;;;57.78;32.88;;;;;;;13.43;100.00;100411.09;5017158;28;20189;-70
2021/09/05 02:45:21;;;;;;;65.55;34.50;;;;;;;13.44;100.00;100414.63;5015981;28;20433;-69
2021/09/05 02:48:17;;;;;;;66.45;34.95;;;;;;;13.41;100.00;100415.69;4985400;28;20133;-70
2021/09/05 02:51:15;;;;;;;65.43;34.05;;;;;;;13.38;100.00;100413.22;5016632;28;20053;-70
2021/09/05 02:53:42;;;;;;;63.58;34.65;;;;;;;13.33;100.00;100406.47;5017151;28;20065;-70
2021/09/05 02:56:41;;;;;;;62.25;35.00;;;;;;;13.39;100.00;100409.56;5015553;28;20077;-70
2021/09/05 02:59:28;;;;;;;67.82;36.78;;;;;;;13.36;100.00;100409.81;5012618;28;20121;-68
2021/09/05 03:02:12;;;;;;;70.97;34.92;;;;;;;13.20;100.00;100385.88;5015330;28;20050;-68
2021/09/05 03:05:03;;;;;;;74.30;36.80;;;;;;;13.30;100.00;100412.91;5015991;28;20049;-69
2021/09/05 03:07:49;;;;;;;65.40;34.75;;;;;;;13.30;100.00;100419.09;5016498;28;20060;-69
2021/09/05 03:10:54;;;;;;;68.82;34.40;;;;;;;13.23;100.00;100411.59;5014293;28;20038;-69
2021/09/05 03:13:39;;;;;;;68.40;35.55;;;;;;;13.30;100.00;100419.09;5014648;28;20073;-69
2021/09/05 03:16:32;;;;;;;65.35;34.33;;;;;;;13.22;100.00;100413.41;5011171;28;20110;-69
2021/09/05 03:19:35;;;;;;;62.00;32.53;;;;;;;13.20;100.00;100409.13;5015026;28;20049;-69
2021/09/05 03:22:29;;;;;;;70.03;34.95;;;;;;;13.17;100.00;100411.06;4995314;28;20355;-69
2021/09/05 03:25:11;;;;;;;65.32;33.10;;;;;;;13.12;100.00;100415.00;5010393;28;20049;-68
2021/09/05 03:28:04;;;;;;;62.35;34.22;;;;;;;13.10;100.00;100417.78;5015957;28;20129;-68
2021/09/05 03:31:03;;;;;;;54.65;32.78;;;;;;;13.11;100.00;100415.94;4982910;28;20137;-69
2021/09/05 03:33:50;;;;;;;58.42;31.52;;;;;;;13.09;100.00;100418.75;4995109;28;20068;-68
2021/09/05 03:36:46;;;;;;;64.90;33.75;;;;;;;13.13;100.00;100419.41;5014598;28;20069;-68
2021/09/05 03:39:40;;;;;;;61.85;32.38;;;;;;;13.02;100.00;100415.63;5014700;28;20328;-69
2021/09/05 03:42:36;;;;;;;62.20;31.10;;;;;;;13.03;100.00;100413.81;5014417;28;20046;-69
2021/09/05 03:45:24;;;;;;;59.05;32.45;;;;;;;13.00;100.00;100420.22;5014725;28;20074;-69
2021/09/05 03:48:11;;;;;;;61.63;33.40;;;;;;;12.93;100.00;100418.06;5015306;28;20052;-68
2021/09/05 03:50:53;;;;;;;62.45;33.10;;;;;;;12.91;100.00;100415.47;5030992;28;20064;-68
2021/09/05 03:53:21;;;;;;;64.22;33.53;;;;;;;12.88;100.00;100418.38;5014299;28;20133;-69
2021/09/05 03:55:53;;;;;;;64.22;34.25;;;;;;;12.83;100.00;100416.00;5014347;28;20390;-69
2021/09/05 03:58:22;;;;;;;61.88;33.90;;;;;;;12.77;100.00;100411.88;5014895;28;20354;-68
2021/09/05 04:00:48;;;;;;;64.28;35.03;;;;;;;12.74;100.00;100411.25;4998207;28;20053;-68
2021/09/05 04:03:16;;;;;;;70.00;36.28;;;;;;;12.74;100.00;100416.59;5014385;28;20061;-68
2021/09/05 04:05:43;;;;;;;66.43;35.38;;;;;;;12.62;100.00;100397.72;5015293;28;20072;-68
2021/09/05 04:10:37;;;;;;;67.78;36.15;;;;;;;12.72;100.00;100411.38;5014354;28;20042;-69
2021/09/05 04:13:05;;;;;;;67.47;36.85;;;;;;;12.74;100.00;100419.28;5014812;28;20046;-68
2021/09/05 04:15:32;;;;;;;69.10;36.25;;;;;;;12.75;100.00;100418.34;5015181;28;20049;-68
2021/09/05 04:17:59;;;;;;;69.30;35.30;;;;;;;12.75;100.00;100416.50;5015399;28;20049;-68
2021/09/05 04:20:26;;;;;;;67.13;35.78;;;;;;;12.71;100.00;100408.78;5014095;28;20398;-69
2021/09/05 04:22:52;;;;;;;69.68;36.38;;;;;;;12.69;100.00;100421.41;4997775;28;20061;-69
2021/09/05 04:25:19;;;;;;;73.95;37.17;;;;;;;12.66;100.00;100419.81;5015114;28;20054;-69
2021/09/05 04:27:46;;;;;;;72.03;38.08;;;;;;;12.67;100.00;100423.31;5015100;28;20340;-69
2021/09/05 04:30:13;;;;;;;68.53;36.60;;;;;;;12.63;100.00;100422.66;5014156;28;20316;-69
2021/09/05 04:32:40;;;;;;;69.07;35.90;;;;;;;12.61;100.00;100414.75;5015144;28;20042;-69
2021/09/05 04:35:08;;;;;;;75.15;37.22;;;;;;;12.58;100.00;100414.94;5015169;28;20410;-69
2021/09/05 04:37:35;;;;;;;69.30;34.78;;;;;;;12.59;100.00;100423.84;5013913;28;20107;-68
2021/09/05 04:40:02;;;;;;;61.40;34.10;;;;;;;12.56;100.00;100424.03;5013829;28;20045;-69
2021/09/05 04:42:29;;;;;;;68.97;35.42;;;;;;;12.60;100.00;100430.91;5014879;28;20165;-69
2021/09/05 04:44:56;;;;;;;66.90;34.72;;;;;;;12.58;100.00;100424.81;5014121;28;20050;-68
2021/09/05 04:47:23;;;;;;;66.32;35.17;;;;;;;12.53;100.00;100430.44;5016631;28;20384;-69
2021/09/05 04:49:49;;;;;;;67.60;33.90;;;;;;;12.48;100.00;100433.41;5014890;28;20053;-70
2021/09/05 04:52:16;;;;;;;70.25;35.05;;;;;;;12.49;100.00;100432.44;5014850;28;20045;-70
2021/09/05 04:54:44;;;;;;;62.97;35.00;;;;;;;12.49;100.00;100440.47;5013711;28;20137;-69
2021/09/05 04:57:11;;;;;;;63.85;34.95;;;;;;;12.46;100.00;100438.03;5014840;28;20049;-71
2021/09/05 04:59:38;;;;;;;64.32;34.72;;;;;;;12.50;100.00;100444.88;5017002;28;20046;-68
2021/09/05 05:02:05;;;;;;;64.78;33.92;;;;;;;12.49;100.00;100447.69;5018887;28;20497;-69
2021/09/05 05:04:32;;;;;;;58.60;32.97;;;;;;;12.53;100.00;100446.50;5017639;28;20066;-70
2021/09/05 05:06:59;;;;;;;61.08;33.80;;;;;;;12.49;100.00;100453.88;5018664;28;20350;-70
2021/09/05 05:09:25;;;;;;;69.28;35.58;;;;;;;12.45;100.00;100438.97;5018692;28;20407;-69
2021/09/05 05:11:52;;;;;;;59.63;34.28;;;;;;;12.46;100.00;100439.81;5018636;28;20132;-69
2021/09/05 05:14:19;;;;;;;65.10;32.70;;;;;;;12.42;100.00;100435.66;5018733;28;20050;-70
2021/09/05 05:16:46;;;;;;;66.22;32.58;;;;;;;12.50;100.00;100444.03;5017540;28;20096;-69
2021/09/05 05:19:12;;;;;;;66.07;33.88;;;;;;;12.52;100.00;100447.47;5018928;28;20065;-69
2021/09/05 05:21:41;;;;;;;68.95;35.63;;;;;;;12.58;100.00;100451.59;5017151;28;20050;-71
2021/09/05 05:24:08;;;;;;;68.72;35.25;;;;;;;12.43;100.00;100415.94;5018435;28;20402;-70
2021/09/05 05:26:35;;;;;;;68.22;35.67;;;;;;;12.63;100.00;100436.06;5017286;28;20057;-69
2021/09/05 05:29:02;;;;;;;73.32;36.33;;;;;;;12.78;100.00;100442.22;5018351;28;20041;-70
2021/09/05 05:31:29;;;;;;;85.97;40.83;;;;;;;12.88;100.00;100448.72;5018199;28;20042;-70
2021/09/05 05:33:55;;;;;;;85.07;41.67;;;;;;;12.97;100.00;100444.53;5018230;28;20049;-70
2021/09/05 05:36:22;;;;;;;82.35;40.85;;;;;;;12.91;100.00;100428.88;5018307;28;20045;-69
2021/09/05 05:38:49;;;;;;;81.78;41.20;;;;;;;13.13;100.00;100457.78;5018453;28;20046;-69
2021/09/05 05:41:19;;;;;;;82.60;41.08;;;;;;;13.17;100.00;100450.38;5018168;28;20045;-70
2021/09/05 05:43:45;;;;;;;78.85;40.00;;;;;;;13.25;100.00;100455.22;5018186;28;20123;-70
2021/09/05 05:46:12;;;;;;;82.00;41.05;;;;;;;13.28;100.00;100449.66;5018121;28;20604;-70
2021/09/05 05:48:39;;;;;;;82.47;40.78;;;;;;;13.32;100.00;100448.50;5018050;28;20049;-70
2021/09/05 05:51:06;;;;;;;80.95;40.08;;;;;;;13.37;100.00;100448.16;5017833;28;20439;-69
2021/09/05 05:53:33;;;;;;;85.47;40.72;;;;;;;13.38;100.00;100447.19;5018061;28;20042;-69
2021/09/05 05:55:59;;;;;;;74.18;39.55;;;;;;;13.41;100.00;100453.22;5017897;28;20056;-71
2021/09/05 05:58:28;;;;;;;88.05;40.72;;;;;;;13.46;100.00;100450.28;5016856;28;20114;-70
2021/09/05 06:01:07;;;;;;;;;;;;;;;13.51;100.00;100450.78;5018159;28;20038;-70
2021/09/05 06:03:36;;;;;;;79.10;39.67;;;;;;;13.62;100.00;100449.22;5016666;28;19928;-69
2021/09/05 06:06:04;;;;;;;77.53;40.40;;;;;;;13.70;100.00;100458.44;5000063;28;20050;-69
2021/09/05 06:08:32;;;;;;;86.10;39.67;;;;;;;13.74;100.00;100453.72;5017694;28;20140;-70
2021/09/05 06:11:00;;;;;;;85.60;40.42;;;;;;;13.76;100.00;100451.78;5017207;28;20092;-70
2021/09/05 06:13:27;;;;;;;84.32;40.22;;;;;;;13.77;100.00;100458.84;5017548;28;20072;-69
2021/09/05 06:15:54;;;;;;;84.07;41.38;;;;;;;13.81;100.00;100463.06;5017426;28;20077;-73
2021/09/05 06:18:20;;;;;;;79.53;39.85;;;;;;;13.83;100.00;100469.16;5015683;28;20053;-74
2021/09/05 06:20:47;;;;;;;79.70;39.60;;;;;;;13.73;100.00;100446.63;5014077;28;20065;-76
2021/09/05 06:23:14;;;;;;;77.45;38.92;;;;;;;13.96;100.00;100476.34;5015852;28;20045;-73
2021/09/05 06:25:41;;;;;;;72.43;37.72;;;;;;;13.98;100.00;100477.97;5014610;28;20062;-74
2021/09/05 06:28:08;;;;;;;74.55;38.03;;;;;;;14.03;100.00;100474.09;5013511;28;20044;-71
2021/09/05 06:30:34;;;;;;;75.82;38.28;;;;;;;14.06;100.00;100480.09;5015564;28;20037;-70
2021/09/05 06:33:01;;;;;;;74.65;38.28;;;;;;;14.10;100.00;100478.03;5016834;28;20141;-70
2021/09/05 06:35:29;;;;;;;75.88;39.13;;;;;;;14.18;100.00;100478.38;5009962;28;20058;-69
2021/09/05 06:37:56;;;;;;;72.57;39.13;;;;;;;14.25;100.00;100482.34;5003657;28;20041;-70
2021/09/05 06:40:22;;;;;;;76.00;39.38;;;;;;;14.25;100.00;100478.78;5005834;28;20046;-71
2021/09/05 06:42:49;;;;;;;77.35;40.75;;;;;;;14.29;100.00;100484.81;5014670;28;20419;-69
2021/09/05 06:45:16;;;;;;;80.13;41.60;;;;;;;14.33;100.00;100489.00;5013310;28;20339;-69
2021/09/05 06:47:43;;;;;;;80.97;40.33;;;;;;;14.34;100.00;100477.28;5006393;28;20763;-72
2021/09/05 06:50:11;;;;;;;84.93;40.85;;;;;;;14.40;100.00;100479.53;5025056;28;20034;-71
2021/09/05 06:52:39;;;;;;;78.40;40.20;;;;;;;14.44;100.00;100482.84;5012216;28;20034;-71
2021/09/05 06:55:06;;;;;;;79.18;39.60;;;;;;;14.48;100.00;100479.81;5015224;28;20435;-72
2021/09/05 06:57:34;;;;;;;80.82;39.42;;;;;;;14.52;100.00;100485.81;5007082;28;20402;-72
2021/09/05 07:00:01;;;;;;;82.82;42.33;;;;;;;14.51;100.00;100490.31;5011271;28;20117;-70
2021/09/05 07:02:28;;;;;;;82.85;42.83;;;;;;;14.55;100.00;100484.75;5014826;28;20458;-70
2021/09/05 07:04:55;;;;;;;80.50;41.70;;;;;;;14.64;100.00;100494.81;5011187;28;20066;-71
2021/09/05 07:07:40;;;;;;;80.78;41.38;;;;;;;14.71;100.00;100501.44;5003404;28;20065;-72
2021/09/05 07:10:07;;;;;;;90.45;42.60;;;;;;;14.75;100.00;100494.06;5015151;28;20403;-70
2021/09/05 07:12:38;;;;;;;79.53;42.10;;;;;;;14.89;100.00;100503.81;5015551;28;20072;-70
2021/09/05 07:15:06;;;;;;;81.80;41.72;;;;;;;14.90;100.00;100502.81;4996274;28;20050;-70
2021/09/05 07:17:33;;;;;;;82.38;40.33;;;;;;;14.98;100.00;100505.78;5003952;28;20034;-71
2021/09/05 07:20:00;;;;;;;81.38;40.63;;;;;;;14.94;100.00;100490.88;5014206;28;20103;-72
2021/09/05 07:22:27;;;;;;;75.25;40.13;;;;;;;15.04;100.00;100505.34;5012583;28;20050;-71
2021/09/05 07:24:54;;;;;;;74.30;39.55;;;;;;;15.11;100.00;100507.56;5014270;28;20504;-72
2021/09/05 07:27:21;;;;;;;75.15;38.70;;;;;;;15.15;100.00;100512.59;4997573;28;20532;-70
2021/09/05 07:29:48;;;;;;;72.18;37.78;;;;;;;15.25;100.00;100510.06;5014487;28;20074;-71
2021/09/05 07:32:15;;;;;;;69.43;37.28;;;;;;;15.20;100.00;100480.84;5014640;28;20095;-70
2021/09/05 07:34:41;;;;;;;68.88;35.55;;;;;;;15.42;100.00;100510.66;5010906;28;20203;-71
2021/09/05 07:37:09;;;;;;;69.07;36.53;;;;;;;15.53;100.00;100513.34;5006015;28;20320;-72
2021/09/05 07:39:35;;;;;;;67.88;35.38;;;;;;;15.45;100.00;100491.56;5015759;28;20050;-74
2021/09/05 07:42:03;;;;;;;62.25;34.85;;;;;;;15.67;100.00;100515.00;5013823;28;20426;-71
2021/09/05 07:44:29;;;;;;;61.30;33.47;;;;;;;15.80;100.00;100522.13;5001665;28;20332;-71
2021/09/05 07:46:56;;;;;;;57.22;33.25;;;;;;;15.91;100.00;100521.28;5016968;28;20080;-71
2021/09/05 07:49:23;;;;;;;63.75;33.33;;;;;;;15.96;100.00;100524.53;5012549;28;20108;-71
2021/09/05 07:51:50;;;;;;;57.75;32.22;;;;;;;16.09;100.00;100533.34;5029809;28;20129;-71
2021/09/05 07:54:17;;;;;;;60.72;32.47;;;;;;;16.12;100.00;100530.41;5014675;28;20056;-69
2021/09/05 07:56:43;;;;;;;55.55;30.80;;;;;;;16.13;100.00;100537.50;5014974;28;20056;-69
2021/09/05 07:59:10;;;;;;;54.47;31.50;;;;;;;16.17;100.00;100532.72;5014348;28;20129;-70
2021/09/05 08:01:37;;;;;;;52.88;30.98;;;;;;;16.25;100.00;100534.84;4994358;28;20053;-70
2021/09/05 08:04:08;;;;;;;55.72;31.58;;;;;;;16.27;100.00;100530.16;5015133;28;20172;-71
2021/09/05 08:06:35;;;;;;;55.72;31.30;;;;;;;16.37;100.00;100538.38;5011014;28;20040;-69
2021/09/05 08:09:02;;;;;;;56.33;32.13;;;;;;;16.43;100.00;100544.16;5015004;28;20137;-69
2021/09/05 08:11:29;;;;;;;51.33;31.90;;;;;;;16.54;99.46;100539.72;5011476;28;20078;-71
2021/09/05 08:13:56;;;;;;;54.67;33.22;;;;;;;16.58;99.41;100546.59;5006570;28;20046;-70
2021/09/05 08:16:23;;;;;;;50.45;30.85;;;;;;;16.60;100.00;100544.63;5013081;28;20116;-70
2021/09/05 08:18:50;;;;;;;54.53;31.25;;;;;;;16.59;100.00;100537.53;4997035;28;20050;-70
2021/09/05 08:21:16;;;;;;;56.00;32.65;;;;;;;16.71;99.76;100551.84;4998952;28;20053;-70
2021/09/05 08:23:44;;;;;;;58.63;32.45;;;;;;;16.79;98.32;100552.06;4992029;28;20057;-71
2021/09/05 08:26:12;;;;;;;53.15;31.38;;;;;;;16.86;98.73;100554.25;5012133;28;20041;-71
2021/09/05 08:28:40;;;;;;;50.67;30.55;;;;;;;16.99;97.68;100556.81;5001737;28;20042;-71
2021/09/05 08:31:08;;;;;;;48.22;29.05;;;;;;;17.10;98.07;100556.81;5016124;28;20156;-70
2021/09/05 08:33:35;;;;;;;48.58;29.17;;;;;;;17.19;98.83;100558.75;5001906;28;20038;-70
2021/09/05 08:36:04;;;;;;;53.10;30.42;;;;;;;17.27;96.90;100560.81;4999123;28;20443;-72
2021/09/05 08:38:31;;;;;;;48.30;28.58;;;;;;;17.36;96.65;100567.28;4996050;28;20054;-73
2021/09/05 08:40:58;;;;;;;53.90;30.08;;;;;;;17.37;97.30;100564.47;5002790;28;20034;-72
2021/09/05 08:43:26;;;;;;;46.75;28.63;;;;;;;17.48;96.70;100571.66;5004063;28;20320;-72
2021/09/05 08:45:53;;;;;;;49.88;30.05;;;;;;;17.63;96.56;100571.34;5001713;28;20046;-70
2021/09/05 08:48:21;;;;;;;47.08;27.30;;;;;;;17.92;94.03;100579.66;5019254;28;20046;-73
2021/09/05 08:50:50;;;;;;;42.75;26.63;;;;;;;18.05;92.70;100571.38;5005143;28;20435;-71
2021/09/05 08:53:17;;;;;;;49.97;27.02;;;;;;;18.19;93.81;100583.72;5003664;28;20046;-73
2021/09/05 08:55:45;;;;;;;45.72;27.38;;;;;;;18.23;93.26;100569.91;5011153;28;20046;-71
2021/09/05 08:58:13;;;;;;;46.80;25.60;;;;;;;18.31;92.75;100575.53;5003499;28;20741;-70
2021/09/05 09:00:42;;;;;;;40.58;25.40;;;;;;;18.35;91.16;100578.81;5013087;28;20358;-70
2021/09/05 09:03:10;;;;;;;46.55;27.70;;;;;;;18.33;89.57;100584.34;5014432;28;20038;-70
2021/09/05 09:05:41;;;;;;;47.33;28.45;;;;;;;18.60;90.47;100577.50;5014639;28;20084;-71
2021/09/05 09:08:09;;;;;;;;;;;;;;;18.65;90.89;100580.66;5014742;28;20104;-71
2021/09/05 09:10:54;;;;;;;42.45;25.73;;;;;;;18.71;91.11;100582.84;5010513;28;19991;-70
2021/09/05 09:13:29;;;;;;;42.80;24.88;;;;;;;18.83;90.05;100588.97;5014086;28;20038;-71
2021/09/05 09:15:59;;;;;;;41.15;23.50;;;;;;;18.91;88.36;100584.72;5018722;28;20046;-73
2021/09/05 09:18:29;;;;;;;40.53;24.85;;;;;;;18.95;87.53;100588.88;5017080;28;20060;-74
2021/09/05 09:20:59;;;;;;;40.57;24.30;;;;;;;19.07;88.18;100589.66;5007754;28;20065;-72
2021/09/05 09:23:31;;;;;;;41.00;24.45;;;;;;;19.28;87.70;100576.00;5005186;28;20435;-72
2021/09/05 09:26:08;;;;;;;38.60;22.48;;;;;;;19.43;85.13;100583.72;5008806;28;20129;-71
2021/09/05 09:28:41;;;;;;;35.70;22.33;;;;;;;19.49;86.76;100580.44;5013838;28;20084;-72
2021/09/05 09:31:18;;;;;;;34.72;22.33;;;;;;;19.54;85.07;100576.31;5009305;28;20041;-73
2021/09/05 09:33:59;;;;;;;36.50;22.58;;;;;;;19.78;84.87;100568.75;5004372;28;20089;-72
2021/09/05 09:36:28;;;;;;;33.58;22.05;;;;;;;20.00;82.83;100575.72;5014326;28;20045;-71
2021/09/05 09:39:07;;;;;;;36.13;21.15;;;;;;;20.17;81.36;100576.00;5005135;28;20046;-72
2021/09/05 09:41:39;;;;;;;39.88;21.83;;;;;;;20.15;82.02;100584.25;4999175;28;20083;-73
2021/09/05 09:44:11;;;;;;;36.13;20.70;;;;;;;20.18;82.72;100577.69;5013536;28;20453;-74
2021/09/05 09:46:39;;;;;;;38.63;21.83;;;;;;;20.17;83.73;100576.84;5017397;28;20056;-81
2021/09/05 09:49:08;;;;;;;33.55;21.17;;;;;;;20.38;82.22;100585.78;4989823;28;20509;-81
2021/09/05 09:51:41;;;;;;;38.75;20.73;;;;;;;20.40;81.51;100576.50;5016893;28;20038;-76
2021/09/05 09:54:09;;;;;;;35.20;21.13;;;;;;;20.42;81.81;100579.91;5000324;28;20053;-82
2021/09/05 09:56:36;;;;;;;35.42;21.98;;;;;;;20.47;83.02;100577.59;5017632;28;20435;-77
2021/09/05 09:59:06;;;;;;;37.75;22.67;;;;;;;20.52;82.31;100581.75;5008393;28;20038;-77
2021/09/05 10:01:41;;;;;;;39.28;21.38;;;;;;;20.65;80.95;100584.97;5012905;28;20065;-76
2021/09/05 10:04:09;;;;;;;36.95;22.20;;;;;;;20.75;80.74;100584.91;5015842;28;20057;-81
2021/09/05 10:06:37;;;;;;;36.15;21.13;;;;;;;20.80;82.33;100581.75;5017316;28;20042;-77
2021/09/05 10:09:07;;;;;;;33.83;20.63;;;;;;;20.77;78.82;100564.75;5017049;28;20050;-77
2021/09/05 10:11:36;;;;;;;33.80;18.85;;;;;;;20.92;80.18;100580.56;5006321;28;20348;-76
2021/09/05 10:14:03;;;;;;;34.80;21.05;;;;;;;21.06;80.37;100583.75;5014733;28;20432;-77
2021/09/05 10:16:31;;;;;;;26.52;18.15;;;;;;;21.21;77.30;100579.53;5016414;28;20060;-77
2021/09/05 10:19:03;;;;;;;29.85;18.98;;;;;;;21.39;76.12;100579.56;5017708;28;20053;-77
2021/09/05 10:21:31;;;;;;;34.47;20.50;;;;;;;21.48;76.77;100582.34;5010386;28;20129;-71
2021/09/05 10:23:58;;;;;;;33.70;21.02;;;;;;;21.52;75.64;100571.00;5002621;28;20048;-72
2021/09/05 10:26:26;;;;;;;33.33;19.85;;;;;;;21.58;74.93;100564.13;5000266;28;20046;-73
2021/09/05 10:28:55;;;;;;;30.92;18.67;;;;;;;21.77;75.55;100584.84;4999600;28;20049;-72
2021/09/05 10:31:42;;;;;;;29.95;19.00;;;;;;;21.79;73.86;100581.97;4998189;28;20046;-73
2021/09/05 10:34:31;;;;;;;33.72;18.83;;;;;;;21.84;75.17;100579.63;5003992;28;20440;-75
2021/09/05 10:37:25;;;;;;;34.10;19.67;;;;;;;21.83;73.92;100557.06;5012850;28;20054;-78
2021/09/05 10:40:09;;;;;;;32.92;19.05;;;;;;;21.96;75.06;100556.63;5005768;28;20041;-74
2021/09/05 10:42:53;;;;;;;28.65;18.42;;;;;;;22.20;73.58;100574.13;5015964;28;20125;-72
2021/09/05 10:45:21;;;;;;;33.28;20.33;;;;;;;22.21;72.72;100569.53;5012440;28;20042;-72
2021/09/05 10:47:48;;;;;;;32.15;19.58;;;;;;;22.30;72.55;100567.72;5014517;28;20418;-76
2021/09/05 10:50:35;;;;;;;31.15;17.92;;;;;;;22.44;74.69;100574.44;5015975;28;20068;-73
2021/09/05 10:53:33;;;;;;;41.10;20.88;;;;;;;22.59;72.68;100572.84;5012226;28;20046;-74
2021/09/05 10:56:13;;;;;;;27.67;19.63;;;;;;;22.69;72.47;100574.56;5012324;28;20053;-74
2021/09/05 10:58:45;;;;;;;28.45;18.45;;;;;;;22.74;72.03;100569.50;5016658;28;20056;-74
2021/09/05 11:01:18;;;;;;;32.65;19.38;;;;;;;22.79;71.16;100567.13;5016331;28;20496;-74
2021/09/05 11:04:10;;;;;;;27.27;17.85;;;;;;;22.85;72.33;100571.06;5016042;28;20049;-75
2021/09/05 11:07:03;;;;;;;28.88;17.98;;;;;;;22.92;71.61;100567.53;5016529;28;20116;-75
2021/09/05 11:09:30;;;;;;;32.40;18.38;;;;;;;23.02;69.99;100577.41;5016207;28;20386;-74
2021/09/05 11:12:11;;;;;;;28.75;18.17;;;;;;;23.02;70.28;100561.09;5015839;28;20129;-73
2021/09/05 11:14:40;;;;;;;24.20;17.35;;;;;;;23.12;69.34;100566.38;5015802;28;20034;-73
2021/09/05 11:17:07;;;;;;;31.20;18.20;;;;;;;23.18;69.47;100565.72;5016197;28;20161;-75
2021/09/05 11:19:43;;;;;;;25.33;17.05;;;;;;;23.37;68.15;100561.84;5015857;28;20041;-75
2021/09/05 11:22:13;;;;;;;24.65;16.50;;;;;;;23.44;67.64;100565.59;5013291;28;20100;-71
2021/09/05 11:24:41;;;;;;;21.85;15.15;;;;;;;23.49;67.38;100567.00;5016130;28;20119;-77
2021/09/05 11:27:11;;;;;;;24.88;15.85;;;;;;;23.53;65.64;100569.19;5015762;28;20065;-71
2021/09/05 11:29:41;;;;;;;26.15;17.13;;;;;;;23.48;66.80;100570.75;5015947;28;20104;-73
2021/09/05 11:32:10;;;;;;;23.83;16.27;;;;;;;23.51;67.18;100564.94;5015770;28;20042;-77
2021/09/05 11:34:51;;;;;;;25.83;15.77;;;;;;;23.64;66.30;100564.44;5015433;28;20042;-77